DWD Radarbild

   
[Quelle: ADDS]
METAR
EDLP 201150Z 14005KT CAVOK 01/M09 Q1017 =
EDLP 201100Z 2012/2112 07005KT CAVOK BECMG 2014/2017 13004KT
TAF
EDLP 201100Z 2012/2112 07005KT CAVOK BECMG 2014/2017 13004KT =
   
   

Meine WettercamWettercam aus Bielefeld Senne - Blickrichtung Süd-Ostjede Min. ein neues Bild

   
Moon phase
Phase:
Zunehmend

Mondphase:
99%

Alter:
14 Tage

Entfernung:
227,161 Km

Zeit:
13:04:28

Datum:
20-01-2019

   
<<  Jan 2019  >>
 Mo  Di  Mi  Do  Fr  Sa  So 
   1  2  3  4  5  6
  7  8  910111213
14151617181920
21222324252627
28293031